createdAt,value
2022-09-23T00:00:30.333Z,99755.72
2022-09-23T00:01:34.719Z,99755.59
2022-09-23T00:02:38.847Z,99751.34
2022-09-23T00:03:45.649Z,99758.38
2022-09-23T00:04:49.571Z,99754.75
2022-09-23T00:06:06.707Z,99753.78
2022-09-23T00:07:10.481Z,99740.50
2022-09-23T00:08:14.434Z,99741.44
2022-09-23T00:09:18.378Z,99739.75
2022-09-23T00:10:24.524Z,99738.22
2022-09-23T00:11:28.988Z,99731.31
2022-09-23T00:12:33.809Z,99726.84
2022-09-23T00:13:39.947Z,99732.81
2022-09-23T00:14:43.906Z,99718.53
2022-09-23T00:15:50.962Z,99741.56
2022-09-23T00:16:55.074Z,99742.53
2022-09-23T00:17:58.725Z,99738.91
2022-09-23T00:19:05.702Z,99732.38
2022-09-23T00:20:11.142Z,99739.94
2022-09-23T00:21:15.162Z,99734.94
2022-09-23T00:22:18.833Z,99733.88
2022-09-23T00:23:22.727Z,99724.47
2022-09-23T00:24:26.798Z,99733.75
2022-09-23T00:25:31.002Z,99733.69
2022-09-23T00:26:34.930Z,99732.81
2022-09-23T00:27:40.042Z,99732.91
2022-09-23T00:28:46.405Z,99729.41
2022-09-23T00:29:50.309Z,99730.38
2022-09-23T00:30:55.062Z,99729.72
2022-09-23T00:31:59.540Z,99714.25
2022-09-23T00:33:03.587Z,99720.22
2022-09-23T00:34:07.267Z,99723.53
2022-09-23T00:35:11.407Z,99719.16
2022-09-23T00:36:16.981Z,99733.97
2022-09-23T00:37:21.290Z,99731.31
2022-09-23T00:38:25.174Z,99727.69
2022-09-23T00:39:29.171Z,99708.63
2022-09-23T00:40:33.138Z,99719.84
2022-09-23T00:41:37.590Z,99713.78
2022-09-23T00:42:55.106Z,99715.56
2022-09-23T00:44:01.693Z,99706.09
2022-09-23T00:45:11.267Z,99716.44
2022-09-23T00:46:36.323Z,99718.97
2022-09-23T00:47:53.090Z,99711.28
2022-09-23T00:49:15.676Z,99719.84
2022-09-23T00:50:40.178Z,99718.13
2022-09-23T00:51:55.861Z,99714.91
2022-09-23T00:53:08.143Z,99721.94
2022-09-23T00:54:12.593Z,99722.59
2022-09-23T00:55:33.350Z,99719.09
2022-09-23T00:56:40.059Z,99720.44
2022-09-23T00:57:46.166Z,99727.25
2022-09-23T00:58:52.471Z,99726.28
2022-09-23T00:59:56.507Z,99727.91
2022-09-23T01:01:02.490Z,99717.56
2022-09-23T01:02:07.439Z,99714.81
2022-09-23T01:03:12.100Z,99718.31
2022-09-23T01:04:16.046Z,99720.69
2022-09-23T01:05:20.471Z,99717.19
2022-09-23T01:06:24.611Z,99718.03
2022-09-23T01:07:28.248Z,99717.91
2022-09-23T01:08:32.385Z,99717.81
2022-09-23T01:09:37.029Z,99712.59
2022-09-23T01:11:19.890Z,99720.59
2022-09-23T01:12:50.442Z,99711.13
2022-09-23T01:14:05.254Z,99716.22
2022-09-23T01:15:50.679Z,99711.19
2022-09-23T01:17:16.290Z,99708.53
2022-09-23T01:18:25.907Z,99714.31
2022-09-23T01:20:19.736Z,99692.97
2022-09-23T01:21:57.353Z,99711.66
2022-09-23T01:23:45.618Z,99706.34
2022-09-23T01:25:11.063Z,99713.44
2022-09-23T01:26:40.456Z,99708.25
2022-09-23T01:28:30.632Z,99714.53
2022-09-23T01:30:03.386Z,99704.16
2022-09-23T01:31:29.927Z,99714.69
2022-09-23T01:33:04.757Z,99711.19
2022-09-23T01:34:22.678Z,99697.44
2022-09-23T01:35:43.069Z,99699.19
2022-09-23T01:37:01.594Z,99688.84
2022-09-23T01:38:34.258Z,99704.28
2022-09-23T01:39:48.473Z,99693.31
2022-09-23T01:41:00.934Z,99702.59
2022-09-23T01:42:34.608Z,99696.81
2022-09-23T01:44:08.917Z,99703.53
2022-09-23T01:45:31.917Z,99706.19
2022-09-23T01:47:10.571Z,99704.50
2022-09-23T01:48:42.191Z,99702.75
2022-09-23T01:50:03.711Z,99700.31
2022-09-23T01:51:17.262Z,99704.56
2022-09-23T01:52:47.829Z,99701.38
2022-09-23T01:54:18.760Z,99704.69
2022-09-23T01:55:44.856Z,99694.38
2022-09-23T01:56:59.180Z,99702.88
2022-09-23T01:58:52.652Z,99690.94
2022-09-23T02:00:06.844Z,99697.66
2022-09-23T02:01:20.809Z,99679.09
2022-09-23T02:02:34.429Z,99696.69
2022-09-23T02:03:50.128Z,99698.41
2022-09-23T02:05:22.138Z,99696.81
2022-09-23T02:06:40.381Z,99699.19
2022-09-23T02:08:02.058Z,99708.00
2022-09-23T02:09:14.478Z,99701.72
2022-09-23T02:10:30.622Z,99713.22
2022-09-23T02:11:38.270Z,99709.59
2022-09-23T02:12:50.118Z,99702.97
2022-09-23T02:14:11.197Z,99703.53
2022-09-23T02:15:21.390Z,99702.00
2022-09-23T02:16:41.804Z,99699.47
2022-09-23T02:17:55.881Z,99696.91
2022-09-23T02:19:15.125Z,99697.88
2022-09-23T02:20:28.567Z,99705.53
2022-09-23T02:21:39.635Z,99704.88
2022-09-23T02:23:08.679Z,99707.34
2022-09-23T02:24:21.443Z,99707.53
2022-09-23T02:25:43.309Z,99704.13
2022-09-23T02:26:56.343Z,99711.91
2022-09-23T02:28:24.493Z,99687.91
2022-09-23T02:29:54.689Z,99705.63
2022-09-23T02:31:28.947Z,99702.97
2022-09-23T02:32:58.334Z,99707.44
2022-09-23T02:34:16.464Z,99700.31
2022-09-23T02:35:33.225Z,99695.50
2022-09-23T02:37:13.350Z,99704.78
2022-09-23T02:38:45.081Z,99696.13
2022-09-23T02:40:23.879Z,99714.47
2022-09-23T02:41:56.513Z,99700.53
2022-09-23T02:43:06.570Z,99708.41
2022-09-23T02:44:18.710Z,99707.72
2022-09-23T02:45:22.965Z,99692.94
2022-09-23T02:46:30.201Z,99703.19
2022-09-23T02:47:39.932Z,99699.75
2022-09-23T02:49:11.445Z,99685.94
2022-09-23T02:50:15.401Z,99702.41
2022-09-23T02:51:20.043Z,99704.88
2022-09-23T02:52:25.187Z,99704.88
2022-09-23T02:53:35.127Z,99706.69
2022-09-23T02:54:40.693Z,99711.16
2022-09-23T02:55:45.101Z,99710.19
2022-09-23T02:56:52.694Z,99709.34
2022-09-23T02:57:57.619Z,99697.31
2022-09-23T02:59:02.705Z,99707.53
2022-09-23T03:00:07.575Z,99709.44
2022-09-23T03:01:33.930Z,99707.66
2022-09-23T03:03:23.260Z,99698.44
2022-09-23T03:04:51.167Z,99702.50
2022-09-23T03:06:00.377Z,99700.16
2022-09-23T03:07:17.336Z,99707.84
2022-09-23T03:08:30.604Z,99708.69
2022-09-23T03:09:47.688Z,99699.97
2022-09-23T03:11:08.865Z,99707.09
2022-09-23T03:12:36.254Z,99710.59
2022-09-23T03:14:17.759Z,99706.25
2022-09-23T03:16:12.911Z,99706.97
2022-09-23T03:17:33.685Z,99693.34
2022-09-23T03:19:07.398Z,99696.56
2022-09-23T03:20:27.075Z,99696.94
2022-09-23T03:21:47.237Z,99695.91
2022-09-23T03:23:01.249Z,99683.56
2022-09-23T03:24:10.919Z,99693.91
2022-09-23T03:25:22.165Z,99708.03
2022-09-23T03:26:35.504Z,99693.91
2022-09-23T03:27:42.822Z,99696.63
2022-09-23T03:28:47.845Z,99703.69
2022-09-23T03:29:55.073Z,99698.25
2022-09-23T03:31:02.564Z,99690.69
2022-09-23T03:32:08.354Z,99699.13
2022-09-23T03:33:16.983Z,99705.28
2022-09-23T03:34:35.141Z,99698.44
2022-09-23T03:36:10.961Z,99687.91
2022-09-23T03:37:31.788Z,99699.84
2022-09-23T03:38:44.003Z,99701.56
2022-09-23T03:39:59.955Z,99689.50
2022-09-23T03:41:05.829Z,99698.06
2022-09-23T03:42:23.135Z,99698.16
2022-09-23T03:43:27.167Z,99686.97
2022-09-23T03:44:38.002Z,99702.41
2022-09-23T03:45:42.824Z,99697.09
2022-09-23T03:46:49.986Z,99698.78
2022-09-23T03:47:54.081Z,99691.03
2022-09-23T03:49:15.765Z,99684.97
2022-09-23T03:50:21.302Z,99691.69
2022-09-23T03:51:25.252Z,99695.09
2022-09-23T03:52:30.049Z,99698.63
2022-09-23T03:53:33.757Z,99690.63
2022-09-23T03:54:38.071Z,99689.78
2022-09-23T03:55:42.272Z,99682.09
2022-09-23T03:56:50.182Z,99696.81
2022-09-23T03:57:55.696Z,99690.63
2022-09-23T03:58:59.691Z,99691.50
2022-09-23T04:00:07.007Z,99683.63
2022-09-23T04:01:11.637Z,99687.03
2022-09-23T04:02:16.732Z,99695.97
2022-09-23T04:03:20.871Z,99693.19
2022-09-23T04:04:24.739Z,99694.91
2022-09-23T04:05:29.369Z,99679.25
2022-09-23T04:06:33.270Z,99685.44
2022-09-23T04:07:37.425Z,99691.38
2022-09-23T04:08:41.289Z,99662.50
2022-09-23T04:09:45.437Z,99694.91
2022-09-23T04:10:54.187Z,99687.97
2022-09-23T04:11:59.063Z,99690.53
2022-09-23T04:13:02.881Z,99685.44
2022-09-23T04:14:07.708Z,99685.50
2022-09-23T04:15:12.130Z,99695.00
2022-09-23T04:16:16.104Z,99689.78
2022-09-23T04:17:20.126Z,99689.78
2022-09-23T04:18:23.947Z,99692.34
2022-09-23T04:19:27.753Z,99675.38
2022-09-23T04:20:31.512Z,99689.97
2022-09-23T04:21:36.241Z,99695.22
2022-09-23T04:22:40.126Z,99664.28
2022-09-23T04:23:45.247Z,99679.09
2022-09-23T04:24:49.627Z,99690.28
2022-09-23T04:25:54.085Z,99703.38
2022-09-23T04:26:58.579Z,99698.16
2022-09-23T04:28:03.032Z,99701.03
2022-09-23T04:29:08.121Z,99698.25
2022-09-23T04:30:12.846Z,99692.28
2022-09-23T04:31:17.330Z,99701.88
2022-09-23T04:32:21.214Z,99688.97
2022-09-23T04:33:26.197Z,99701.94
2022-09-23T04:34:29.967Z,99709.84
2022-09-23T04:35:36.715Z,99709.00
2022-09-23T04:36:45.488Z,99708.03
2022-09-23T04:37:49.413Z,99691.63
2022-09-23T04:38:53.823Z,99696.56
2022-09-23T04:39:57.666Z,99698.44
2022-09-23T04:41:01.752Z,99694.19
2022-09-23T04:42:05.743Z,99703.59
2022-09-23T04:43:13.449Z,99703.59
2022-09-23T04:44:17.853Z,99696.84
2022-09-23T04:45:22.242Z,99687.28
2022-09-23T04:46:26.384Z,99693.13
2022-09-23T04:47:32.921Z,99696.56
2022-09-23T04:48:38.559Z,99682.81
2022-09-23T04:49:42.413Z,99682.25
2022-09-23T04:50:46.228Z,99694.94
2022-09-23T04:51:49.902Z,99699.13
2022-09-23T04:52:55.367Z,99687.91
2022-09-23T04:53:59.158Z,99700.91
2022-09-23T04:55:02.948Z,99705.38
2022-09-23T04:56:22.925Z,99697.31
2022-09-23T04:57:26.676Z,99686.50
2022-09-23T04:58:30.940Z,99698.66
2022-09-23T04:59:34.721Z,99702.06
2022-09-23T05:00:38.950Z,99697.59
2022-09-23T05:01:43.807Z,99701.03
2022-09-23T05:02:50.758Z,99697.59
2022-09-23T05:04:02.320Z,99701.66
2022-09-23T05:05:07.156Z,99684.53
2022-09-23T05:06:14.520Z,99708.69
2022-09-23T05:07:19.239Z,99696.56
2022-09-23T05:08:22.872Z,99688.88
2022-09-23T05:09:26.701Z,99695.50
2022-09-23T05:10:31.332Z,99699.97
2022-09-23T05:11:35.763Z,99708.28
2022-09-23T05:12:39.588Z,99704.03
2022-09-23T05:13:44.005Z,99702.75
2022-09-23T05:14:47.709Z,99701.16
2022-09-23T05:16:02.533Z,99703.31
2022-09-23T05:17:07.409Z,99706.72
2022-09-23T05:18:11.197Z,99707.69
2022-09-23T05:19:15.593Z,99705.59
2022-09-23T05:20:19.365Z,99708.34
2022-09-23T05:21:25.716Z,99689.28
2022-09-23T05:22:31.035Z,99713.34
2022-09-23T05:23:34.986Z,99702.72
2022-09-23T05:24:38.795Z,99708.59
2022-09-23T05:25:43.529Z,99713.81
2022-09-23T05:26:48.314Z,99711.13
2022-09-23T05:27:52.710Z,99722.22
2022-09-23T05:28:57.158Z,99717.56
2022-09-23T05:30:04.545Z,99710.44
2022-09-23T05:31:19.685Z,99711.19
2022-09-23T05:32:24.521Z,99724.00
2022-09-23T05:33:28.574Z,99716.88
2022-09-23T05:34:32.527Z,99713.25
2022-09-23T05:35:36.295Z,99708.78
2022-09-23T05:36:40.474Z,99718.19
2022-09-23T05:37:44.172Z,99728.13
2022-09-23T05:38:50.300Z,99721.72
2022-09-23T05:39:54.524Z,99723.22
2022-09-23T05:41:01.152Z,99720.25
2022-09-23T05:42:05.744Z,99732.41
2022-09-23T05:43:10.527Z,99725.25
2022-09-23T05:44:14.809Z,99723.44
2022-09-23T05:45:18.604Z,99721.53
2022-09-23T05:46:28.091Z,99720.69
2022-09-23T05:47:31.874Z,99729.94
2022-09-23T05:48:37.575Z,99721.97
2022-09-23T05:49:58.767Z,99723.66
2022-09-23T05:51:04.918Z,99717.59
2022-09-23T05:52:11.076Z,99718.88
2022-09-23T05:53:14.939Z,99728.28
2022-09-23T05:54:19.668Z,99735.19
2022-09-23T05:55:24.222Z,99728.69
2022-09-23T05:56:29.405Z,99734.78
2022-09-23T05:57:33.316Z,99707.94
2022-09-23T05:58:37.186Z,99725.81
2022-09-23T05:59:42.710Z,99722.31
2022-09-23T06:00:46.420Z,99718.78
2022-09-23T06:01:52.129Z,99740.09
2022-09-23T06:02:59.665Z,99733.69
2022-09-23T06:04:08.530Z,99730.31
2022-09-23T06:05:12.513Z,99706.88
2022-09-23T06:06:19.686Z,99720.50
2022-09-23T06:07:23.480Z,99734.56
2022-09-23T06:08:27.543Z,99738.59
2022-09-23T06:09:36.164Z,99735.59
2022-09-23T06:10:43.531Z,99744.13
2022-09-23T06:11:47.630Z,99729.00
2022-09-23T06:12:51.604Z,99738.13
2022-09-23T06:14:02.263Z,99741.56
2022-09-23T06:15:07.518Z,99734.44
2022-09-23T06:16:16.749Z,99738.34
2022-09-23T06:17:20.561Z,99739.22
2022-09-23T06:18:24.435Z,99733.03
2022-09-23T06:19:28.416Z,99741.97
2022-09-23T06:20:37.493Z,99735.59
2022-09-23T06:21:42.040Z,99740.13
2022-09-23T06:22:45.779Z,99746.19
2022-09-23T06:23:52.026Z,99736.50
2022-09-23T06:24:56.527Z,99746.16
2022-09-23T06:26:02.841Z,99749.09
2022-09-23T06:27:07.174Z,99748.66
2022-09-23T06:28:12.770Z,99754.53
2022-09-23T06:29:16.469Z,99744.69
2022-09-23T06:30:21.392Z,99727.19
2022-09-23T06:31:26.464Z,99744.84
2022-09-23T06:32:30.811Z,99743.75
2022-09-23T06:33:37.344Z,99738.22
2022-09-23T06:34:51.203Z,99733.09
2022-09-23T06:36:01.400Z,99741.03
2022-09-23T06:37:16.722Z,99743.50
2022-09-23T06:38:23.595Z,99733.69
2022-09-23T06:39:27.655Z,99741.25
2022-09-23T06:40:32.722Z,99716.22
2022-09-23T06:41:36.651Z,99730.34
2022-09-23T06:42:42.043Z,99734.97
2022-09-23T06:43:46.423Z,99742.03
2022-09-23T06:44:50.449Z,99733.06
2022-09-23T06:46:02.314Z,99720.91
2022-09-23T06:47:06.494Z,99738.44
2022-09-23T06:48:10.771Z,99742.34
2022-09-23T06:49:14.870Z,99744.03
2022-09-23T06:50:19.807Z,99745.75
2022-09-23T06:51:24.376Z,99741.75
2022-09-23T06:52:28.855Z,99746.97
2022-09-23T06:53:33.079Z,99744.44
2022-09-23T06:54:38.320Z,99751.09
2022-09-23T06:55:42.405Z,99746.72
2022-09-23T06:56:47.639Z,99752.56
2022-09-23T06:57:51.625Z,99745.53
2022-09-23T06:58:55.486Z,99746.25
2022-09-23T06:59:59.831Z,99756.22
2022-09-23T07:01:07.687Z,99755.50
2022-09-23T07:02:12.405Z,99754.75
2022-09-23T07:03:16.100Z,99759.28
2022-09-23T07:04:19.998Z,99745.75
2022-09-23T07:05:24.108Z,99753.25
2022-09-23T07:06:27.845Z,99741.06
2022-09-23T07:07:31.804Z,99755.31
2022-09-23T07:08:36.772Z,99753.56
2022-09-23T07:09:40.721Z,99740.84
2022-09-23T07:10:52.105Z,99755.44
2022-09-23T07:11:55.868Z,99741.97
2022-09-23T07:13:06.064Z,99748.50
2022-09-23T07:14:09.894Z,99743.34
2022-09-23T07:15:13.696Z,99741.53
2022-09-23T07:16:17.704Z,99743.78
2022-09-23T07:17:21.686Z,99738.66
2022-09-23T07:18:27.230Z,99747.00
2022-09-23T07:19:30.988Z,99739.53
2022-09-23T07:20:35.123Z,99748.56
2022-09-23T07:21:38.999Z,99735.50
2022-09-23T07:22:42.784Z,99748.34
2022-09-23T07:23:51.499Z,99742.44
2022-09-23T07:24:58.197Z,99740.44
2022-09-23T07:26:02.184Z,99732.88
2022-09-23T07:27:06.079Z,99749.56
2022-09-23T07:28:10.170Z,99725.66
2022-09-23T07:29:15.019Z,99732.47
2022-09-23T07:30:24.755Z,99736.00
2022-09-23T07:31:38.429Z,99741.63
2022-09-23T07:32:48.697Z,99742.00
2022-09-23T07:33:58.154Z,99739.09
2022-09-23T07:35:01.819Z,99733.06
2022-09-23T07:36:12.366Z,99728.72
2022-09-23T07:37:18.168Z,99733.38
2022-09-23T07:38:30.423Z,99726.53
2022-09-23T07:39:34.826Z,99724.03
2022-09-23T07:40:39.979Z,99738.97
2022-09-23T07:41:44.664Z,99734.22
2022-09-23T07:42:48.676Z,99740.38
2022-09-23T07:43:55.515Z,99731.34
2022-09-23T07:44:59.747Z,99731.09
2022-09-23T07:46:12.054Z,99727.28
2022-09-23T07:47:17.370Z,99730.03
2022-09-23T07:48:21.558Z,99734.97
2022-09-23T07:49:26.173Z,99715.81
2022-09-23T07:50:32.418Z,99736.22
2022-09-23T07:51:39.242Z,99737.47
2022-09-23T07:52:43.469Z,99709.41
2022-09-23T07:53:49.644Z,99728.81
2022-09-23T07:54:54.828Z,99703.94
2022-09-23T07:55:59.735Z,99733.91
2022-09-23T07:57:03.726Z,99728.91
2022-09-23T07:58:07.689Z,99724.69
2022-09-23T07:59:20.410Z,99710.72
2022-09-23T08:00:24.402Z,99709.13
2022-09-23T08:01:34.464Z,99730.31
2022-09-23T08:02:38.665Z,99718.59
2022-09-23T08:03:45.787Z,99736.75
2022-09-23T08:04:50.174Z,99715.88
2022-09-23T08:05:53.817Z,99735.44
2022-09-23T08:07:05.462Z,99741.34
2022-09-23T08:08:09.948Z,99739.34
2022-09-23T08:09:18.810Z,99733.13
2022-09-23T08:10:22.932Z,99737.06
2022-09-23T08:11:30.075Z,99738.47
2022-09-23T08:12:36.414Z,99707.28
2022-09-23T08:13:42.464Z,99721.63
2022-09-23T08:14:48.534Z,99710.69
2022-09-23T08:15:59.110Z,99729.28
2022-09-23T08:17:15.168Z,99721.72
2022-09-23T08:18:22.025Z,99720.13
2022-09-23T08:19:32.132Z,99689.84
2022-09-23T08:20:48.242Z,99724.22
2022-09-23T08:21:54.728Z,99719.13
2022-09-23T08:23:06.395Z,99713.19
2022-09-23T08:24:20.126Z,99712.97
2022-09-23T08:25:24.850Z,99713.44
2022-09-23T08:26:29.731Z,99725.00
2022-09-23T08:27:33.951Z,99708.53
2022-09-23T08:28:37.993Z,99714.75
2022-09-23T08:29:42.675Z,99700.81
2022-09-23T08:30:49.820Z,99719.34
2022-09-23T08:31:54.685Z,99681.22
2022-09-23T08:32:58.697Z,99704.44
2022-09-23T08:34:03.185Z,99713.91
2022-09-23T08:35:08.410Z,99709.00
2022-09-23T08:36:12.884Z,99718.41
2022-09-23T08:37:16.985Z,99701.94
2022-09-23T08:38:21.294Z,99711.25
2022-09-23T08:39:25.957Z,99711.97
2022-09-23T08:40:33.268Z,99694.00
2022-09-23T08:42:21.062Z,99713.28
2022-09-23T08:43:32.225Z,99718.88
2022-09-23T08:45:00.995Z,99712.41
2022-09-23T08:46:11.885Z,99715.72
2022-09-23T08:47:36.567Z,99708.00
2022-09-23T08:48:47.801Z,99710.63
2022-09-23T08:50:22.564Z,99708.19
2022-09-23T08:51:36.650Z,99681.13
2022-09-23T08:52:55.599Z,99707.88
2022-09-23T08:54:00.768Z,99691.09
2022-09-23T08:55:06.928Z,99685.88
2022-09-23T08:56:23.265Z,99701.91
2022-09-23T08:57:37.351Z,99701.03
2022-09-23T08:58:53.693Z,99701.94
2022-09-23T09:00:01.161Z,99688.94
2022-09-23T09:01:50.620Z,99691.81
2022-09-23T09:03:02.089Z,99666.50
2022-09-23T09:04:42.230Z,99684.19
2022-09-23T09:05:54.005Z,99686.56
2022-09-23T09:07:36.646Z,99690.31
2022-09-23T09:08:43.058Z,99680.31
2022-09-23T09:09:55.285Z,99699.34
2022-09-23T09:11:00.216Z,99705.28
2022-09-23T09:12:21.368Z,99700.09
2022-09-23T09:13:50.941Z,99705.00
2022-09-23T09:15:13.028Z,99712.00
2022-09-23T09:16:58.847Z,99709.81
2022-09-23T09:18:19.923Z,99676.63
2022-09-23T09:19:38.767Z,99711.03
2022-09-23T09:21:00.680Z,99707.34
2022-09-23T09:22:15.001Z,99676.69
2022-09-23T09:23:24.541Z,99689.78
2022-09-23T09:24:35.629Z,99716.84
2022-09-23T09:25:52.521Z,99683.38
2022-09-23T09:26:56.425Z,99686.56
2022-09-23T09:28:01.950Z,99702.22
2022-09-23T09:29:34.700Z,99706.66
2022-09-23T09:30:39.447Z,99678.56
2022-09-23T09:31:53.142Z,99699.00
2022-09-23T09:33:10.313Z,99678.63
2022-09-23T09:34:56.246Z,99698.63
2022-09-23T09:36:40.314Z,99685.41
2022-09-23T09:37:53.226Z,99692.47
2022-09-23T09:38:59.696Z,99695.72
2022-09-23T09:40:04.643Z,99700.25
2022-09-23T09:41:21.619Z,99684.03
2022-09-23T09:42:40.260Z,99705.53
2022-09-23T09:43:57.815Z,99704.81
2022-09-23T09:45:21.581Z,99697.00
2022-09-23T09:46:54.876Z,99646.19
2022-09-23T09:48:17.837Z,99655.53
2022-09-23T09:49:43.407Z,99653.84
2022-09-23T09:50:49.752Z,99695.09
2022-09-23T09:52:30.469Z,99685.78
2022-09-23T09:55:14.458Z,99692.34
2022-09-23T09:56:27.060Z,99674.94
2022-09-23T09:58:02.047Z,99689.91
2022-09-23T09:59:21.939Z,99687.78
2022-09-23T10:00:26.688Z,99692.00
2022-09-23T10:01:35.456Z,99693.56
2022-09-23T10:02:43.432Z,99657.63
2022-09-23T10:03:49.327Z,99693.50
2022-09-23T10:05:07.306Z,99673.59
2022-09-23T10:06:30.440Z,99654.63
2022-09-23T10:07:35.325Z,99670.03
2022-09-23T10:08:39.214Z,99684.59
2022-09-23T10:09:51.591Z,99667.16
2022-09-23T10:11:17.119Z,99689.22
2022-09-23T10:12:25.037Z,99670.84
2022-09-23T10:13:30.628Z,99678.78
2022-09-23T10:14:39.155Z,99690.06
2022-09-23T10:15:48.626Z,99688.53
2022-09-23T10:17:06.073Z,99686.84
2022-09-23T10:18:21.044Z,99679.78
2022-09-23T10:19:29.697Z,99654.63
2022-09-23T10:20:39.249Z,99679.22
2022-09-23T10:21:43.687Z,99658.88
2022-09-23T10:22:57.421Z,99651.06
2022-09-23T10:24:04.980Z,99658.16
2022-09-23T10:25:26.956Z,99662.25
2022-09-23T10:26:38.237Z,99687.28
2022-09-23T10:27:42.375Z,99671.88
2022-09-23T10:28:55.674Z,99672.97
2022-09-23T10:30:26.282Z,99681.03
2022-09-23T10:31:36.279Z,99657.25
2022-09-23T10:32:45.999Z,99640.16
2022-09-23T10:34:03.291Z,99688.75
2022-09-23T10:35:09.959Z,99680.25
2022-09-23T10:36:19.074Z,99667.81
2022-09-23T10:37:43.885Z,99675.41
2022-09-23T10:39:23.097Z,99662.31
2022-09-23T10:40:49.400Z,99669.06
2022-09-23T10:42:32.248Z,99669.88
2022-09-23T10:45:00.921Z,99668.97
2022-09-23T10:46:45.957Z,99671.19
2022-09-23T10:48:23.820Z,99654.09
2022-09-23T10:49:53.153Z,99663.16
2022-09-23T10:50:59.560Z,99664.97
2022-09-23T10:52:25.493Z,99662.63
2022-09-23T10:53:58.779Z,99662.09
2022-09-23T10:55:30.164Z,99656.47
2022-09-23T10:57:21.265Z,99627.06
2022-09-23T10:58:43.010Z,99659.63
2022-09-23T10:59:53.463Z,99661.69
2022-09-23T11:01:14.272Z,99654.09
2022-09-23T11:02:42.597Z,99658.78
2022-09-23T11:04:19.935Z,99659.09
2022-09-23T11:05:41.717Z,99649.75
2022-09-23T11:07:41.324Z,99638.19
2022-09-23T11:09:18.585Z,99654.72
2022-09-23T11:10:52.225Z,99633.25
2022-09-23T11:12:18.467Z,99622.38
2022-09-23T11:13:54.661Z,99648.06
2022-09-23T11:15:31.647Z,99651.19
2022-09-23T11:17:01.383Z,99648.91
2022-09-23T11:18:39.742Z,99646.34
2022-09-23T11:20:18.099Z,99644.66
2022-09-23T11:21:44.660Z,99643.09
2022-09-23T11:23:12.697Z,99648.31
2022-09-23T11:24:52.356Z,99617.47
2022-09-23T11:26:09.829Z,99638.56
2022-09-23T11:27:19.510Z,99637.72
2022-09-23T11:28:48.183Z,99638.47
2022-09-23T11:30:14.433Z,99606.88
2022-09-23T11:31:59.405Z,99639.16
2022-09-23T11:33:25.280Z,99596.16
2022-09-23T11:34:58.489Z,99633.94
2022-09-23T11:36:30.833Z,99617.81
2022-09-23T11:37:44.137Z,99622.63
2022-09-23T11:38:52.848Z,99599.84
2022-09-23T11:40:19.598Z,99620.66
2022-09-23T11:41:31.580Z,99599.19
2022-09-23T11:42:47.112Z,99597.47
2022-09-23T11:43:59.875Z,99624.09
2022-09-23T11:45:17.023Z,99597.97
2022-09-23T11:47:07.817Z,99624.38
2022-09-23T11:48:38.376Z,99610.69
2022-09-23T11:49:54.094Z,99595.44
2022-09-23T11:51:16.870Z,99611.13
2022-09-23T11:52:43.473Z,99607.19
2022-09-23T11:54:47.019Z,99569.63
2022-09-23T11:56:05.771Z,99604.66
2022-09-23T11:57:40.269Z,99597.19
2022-09-23T11:59:08.225Z,99578.25
2022-09-23T12:00:38.528Z,99596.78
2022-09-23T12:02:12.368Z,99586.31
2022-09-23T12:03:53.791Z,99605.66
2022-09-23T12:05:16.748Z,99583.88
2022-09-23T12:06:28.230Z,99586.84
2022-09-23T12:07:39.821Z,99606.06
2022-09-23T12:08:44.567Z,99609.28
2022-09-23T12:10:05.026Z,99602.50
2022-09-23T12:11:36.245Z,99596.97
2022-09-23T12:12:49.452Z,99584.78
2022-09-23T12:14:33.054Z,99575.44
2022-09-23T12:16:02.261Z,99603.41
2022-09-23T12:18:06.860Z,99601.53
2022-09-23T12:19:55.923Z,99592.06
2022-09-23T12:21:55.864Z,99590.34
2022-09-23T12:23:29.896Z,99581.03
2022-09-23T12:25:37.192Z,99588.25
2022-09-23T12:26:43.421Z,99571.53
2022-09-23T12:27:53.384Z,99580.47
2022-09-23T12:29:03.814Z,99556.72
2022-09-23T12:30:26.261Z,99580.88
2022-09-23T12:31:33.831Z,99584.25
2022-09-23T12:32:42.442Z,99581.00
2022-09-23T12:33:55.019Z,99544.84
2022-09-23T12:35:00.889Z,99570.28
2022-09-23T12:36:08.152Z,99556.31
2022-09-23T12:37:11.917Z,99578.38
2022-09-23T12:38:25.952Z,99542.63
2022-09-23T12:39:38.658Z,99549.69
2022-09-23T12:40:44.940Z,99552.38
2022-09-23T12:41:58.487Z,99573.44
2022-09-23T12:43:03.137Z,99533.88
2022-09-23T12:44:26.817Z,99569.47
2022-09-23T12:45:34.904Z,99565.69
2022-09-23T12:46:40.362Z,99574.56
2022-09-23T12:47:45.647Z,99576.25
2022-09-23T12:48:58.126Z,99571.88
2022-09-23T12:50:02.000Z,99565.81
2022-09-23T12:51:07.619Z,99560.47
2022-09-23T12:52:25.463Z,99559.63
2022-09-23T12:53:35.148Z,99565.81
2022-09-23T12:54:42.153Z,99559.47
2022-09-23T12:55:47.193Z,99548.84
2022-09-23T12:56:56.615Z,99561.16
2022-09-23T12:58:00.715Z,99545.91
2022-09-23T12:59:29.245Z,99550.59
2022-09-23T13:00:34.399Z,99534.03
2022-09-23T13:01:39.697Z,99509.75
2022-09-23T13:03:17.269Z,99535.34
2022-09-23T13:05:01.826Z,99557.25
2022-09-23T13:06:27.590Z,99520.94
2022-09-23T13:07:34.602Z,99550.59
2022-09-23T13:08:43.723Z,99536.50
2022-09-23T13:09:52.674Z,99530.00
2022-09-23T13:11:05.378Z,99510.09
2022-09-23T13:12:35.036Z,99523.09
2022-09-23T13:13:44.196Z,99530.84
2022-09-23T13:14:51.825Z,99535.91
2022-09-23T13:15:55.780Z,99516.28
2022-09-23T13:17:00.176Z,99514.47
2022-09-23T13:18:22.028Z,99530.31
2022-09-23T13:19:28.637Z,99532.00
2022-09-23T13:20:38.632Z,99521.13
2022-09-23T13:21:46.103Z,99524.50
2022-09-23T13:22:49.894Z,99524.97
2022-09-23T13:24:23.588Z,99520.75
2022-09-23T13:25:33.572Z,99500.28
2022-09-23T13:26:38.104Z,99488.81
2022-09-23T13:27:50.718Z,99501.56
2022-09-23T13:28:59.531Z,99507.09
2022-09-23T13:30:19.387Z,99490.00
2022-09-23T13:31:26.681Z,99488.16
2022-09-23T13:32:37.826Z,99497.09
2022-09-23T13:33:49.261Z,99490.44
2022-09-23T13:35:03.927Z,99516.97
2022-09-23T13:36:19.755Z,99485.63
2022-09-23T13:37:40.780Z,99487.19
2022-09-23T13:38:46.792Z,99501.31
2022-09-23T13:39:51.645Z,99471.50
2022-09-23T13:41:01.999Z,99509.63
2022-09-23T13:42:18.165Z,99466.81
2022-09-23T13:43:41.325Z,99498.19
2022-09-23T13:44:46.453Z,99498.34
2022-09-23T13:45:55.346Z,99507.25
2022-09-23T13:47:03.461Z,99478.69
2022-09-23T13:48:13.887Z,99506.25
2022-09-23T13:49:30.162Z,99484.94
2022-09-23T13:50:38.969Z,99493.41
2022-09-23T13:51:45.692Z,99484.38
2022-09-23T13:53:01.201Z,99508.34
2022-09-23T13:54:05.720Z,99499.63
2022-09-23T13:55:32.243Z,99466.38
2022-09-23T13:56:37.997Z,99472.72
2022-09-23T13:57:43.911Z,99473.59
2022-09-23T13:58:48.963Z,99500.88
2022-09-23T13:59:53.228Z,99476.66
2022-09-23T14:00:59.048Z,99465.25
2022-09-23T14:02:17.111Z,99470.59
2022-09-23T14:03:38.347Z,99504.06
2022-09-23T14:04:42.167Z,99485.00
2022-09-23T14:05:47.062Z,99481.31
2022-09-23T14:06:51.671Z,99454.66
2022-09-23T14:07:57.300Z,99461.97
2022-09-23T14:09:02.978Z,99455.22
2022-09-23T14:10:08.252Z,99459.88
2022-09-23T14:11:32.114Z,99446.59
2022-09-23T14:12:40.211Z,99468.91
2022-09-23T14:13:47.235Z,99439.97
2022-09-23T14:14:53.144Z,99458.03
2022-09-23T14:16:02.383Z,99448.56
2022-09-23T14:17:09.248Z,99470.84
2022-09-23T14:18:36.836Z,99439.66
2022-09-23T14:19:43.524Z,99465.91